Time;durP1;ratioP1;P1;durP2;ratioP2;P2;SDS_P1;SDS_P2;PMS_P1;PMS_P2;Temp;Humidity;BMP_temperature;BMP_pressure;BME280_temperature;BME280_humidity;BME280_pressure;Samples;Min_cycle;Max_cycle;Signal;HPM_P1;HPM_P2
2021/04/05 00:01:36;;;;;;;15.53;14.40;;;6.00;99.90;;;;;;4951972;29;20468;-67
2021/04/05 00:04:03;;;;;;;17.80;16.20;;;6.00;99.90;;;;;;4952491;28;20540;-67
2021/04/05 00:06:30;;;;;;;17.47;15.57;;;6.00;99.90;;;;;;4955708;29;20463;-68
2021/04/05 00:08:56;;;;;;;17.60;16.10;;;5.90;99.90;;;;;;4955866;29;20451;-68
2021/04/05 00:11:22;;;;;;;18.00;16.50;;;5.90;99.90;;;;;;4955641;29;20453;-68
2021/04/05 00:13:49;;;;;;;18.17;16.90;;;5.90;99.90;;;;;;4955491;29;21066;-67
2021/04/05 00:16:17;;;;;;;16.80;15.30;;;5.90;99.90;;;;;;4955585;29;20474;-67
2021/04/05 00:18:43;;;;;;;16.47;15.10;;;5.80;99.90;;;;;;4955957;29;20521;-68
2021/04/05 00:21:12;;;;;;;18.33;16.77;;;5.80;99.90;;;;;;4955851;28;20448;-68
2021/04/05 00:23:39;;;;;;;17.73;16.43;;;5.90;99.90;;;;;;4955676;29;20491;-68
2021/04/05 00:26:06;;;;;;;17.67;16.03;;;5.90;99.90;;;;;;4955104;28;20983;-68
2021/04/05 00:28:32;;;;;;;17.10;15.53;;;5.90;99.90;;;;;;4955396;29;20518;-68
2021/04/05 00:30:59;;;;;;;14.57;13.57;;;5.80;99.90;;;;;;4955389;29;20522;-68
2021/04/05 00:33:25;;;;;;;15.20;13.80;;;5.80;99.90;;;;;;4974349;28;20457;-68
2021/04/05 00:35:51;;;;;;;15.77;14.70;;;5.80;99.90;;;;;;4974380;28;20456;-71
2021/04/05 00:38:17;;;;;;;17.57;16.07;;;5.70;99.90;;;;;;4974484;28;20458;-68
2021/04/05 00:40:48;;;;;;;16.17;14.70;;;5.60;99.90;;;;;;4974439;28;20458;-67
2021/04/05 00:43:16;;;;;;;17.33;15.90;;;5.50;99.90;;;;;;4974748;28;20487;-67
2021/04/05 00:45:43;;;;;;;18.10;16.17;;;5.50;99.90;;;;;;4974447;28;20452;-67
2021/04/05 00:48:11;;;;;;;17.43;15.80;;;5.50;99.90;;;;;;4974615;28;20455;-67
2021/04/05 00:50:44;;;;;;;17.37;15.97;;;5.50;99.90;;;;;;4974495;28;20965;-68
2021/04/05 00:53:12;;;;;;;15.70;14.27;;;5.50;99.90;;;;;;4973901;28;20942;-68
2021/04/05 00:55:41;;;;;;;17.07;15.57;;;5.50;99.90;;;;;;4974261;28;20465;-68
2021/04/05 00:58:08;;;;;;;17.50;16.00;;;5.50;99.90;;;;;;4974243;28;20506;-68
2021/04/05 01:00:38;;;;;;;15.67;14.37;;;5.60;99.90;;;;;;4974308;28;20459;-68
2021/04/05 01:03:05;;;;;;;15.47;14.13;;;5.60;99.90;;;;;;4973946;28;20491;-69
2021/04/05 01:05:31;;;;;;;15.93;14.83;;;5.60;99.90;;;;;;4974197;28;20456;-68
2021/04/05 01:07:58;;;;;;;17.30;16.00;;;5.60;99.90;;;;;;4974039;28;20448;-68
2021/04/05 01:10:25;;;;;;;17.10;15.57;;;5.50;99.90;;;;;;4973820;28;20463;-68
2021/04/05 01:12:51;;;;;;;19.77;18.23;;;5.40;99.90;;;;;;4973741;28;20515;-68
2021/04/05 01:15:19;;;;;;;15.53;14.30;;;5.40;99.90;;;;;;4973011;28;20455;-67
2021/04/05 01:17:46;;;;;;;18.63;14.67;;;5.30;99.90;;;;;;4973170;28;20539;-67
2021/04/05 01:20:14;;;;;;;16.77;15.57;;;5.30;99.90;;;;;;4973820;28;20447;-67
2021/04/05 01:22:41;;;;;;;16.00;14.67;;;5.30;99.90;;;;;;4973944;28;20454;-68
2021/04/05 01:25:10;;;;;;;15.50;13.90;;;5.30;99.90;;;;;;4973756;28;20440;-68
2021/04/05 01:27:37;;;;;;;14.93;13.63;;;5.30;99.90;;;;;;4973494;28;20459;-67
2021/04/05 01:30:08;;;;;;;15.90;14.43;;;5.40;99.90;;;;;;4973219;28;20449;-67
2021/04/05 01:32:34;;;;;;;16.73;15.40;;;5.50;99.90;;;;;;4961157;28;20439;-68
2021/04/05 01:35:00;;;;;;;15.23;14.00;;;5.50;99.90;;;;;;4954229;29;20449;-67
2021/04/05 01:37:26;;;;;;;16.20;14.70;;;5.40;99.90;;;;;;4954200;28;20824;-68
2021/04/05 01:39:53;;;;;;;18.10;16.33;;;5.40;99.90;;;;;;4954099;29;20456;-67
2021/04/05 01:42:20;;;;;;;15.77;14.43;;;5.40;99.90;;;;;;4953822;28;20909;-68
2021/04/05 01:44:46;;;;;;;14.43;13.53;;;5.40;99.90;;;;;;4953960;29;20496;-68
2021/04/05 01:47:12;;;;;;;15.93;14.53;;;5.50;99.90;;;;;;4954221;29;20452;-68
2021/04/05 01:49:40;;;;;;;15.40;13.90;;;5.60;99.90;;;;;;4953945;29;20827;-68
2021/04/05 01:52:12;;;;;;;17.17;15.47;;;5.50;99.90;;;;;;4953714;29;20859;-67
2021/04/05 01:54:39;;;;;;;15.20;14.00;;;5.50;99.90;;;;;;4953730;29;20451;-67
2021/04/05 01:57:08;;;;;;;16.00;14.40;;;5.40;99.90;;;;;;4953876;29;20467;-67
2021/04/05 01:59:34;;;;;;;17.70;15.40;;;5.40;99.90;;;;;;4953826;29;20471;-67
2021/04/05 02:02:01;;;;;;;14.67;13.67;;;5.40;99.90;;;;;;4953680;29;20457;-68
2021/04/05 02:04:27;;;;;;;15.97;14.77;;;5.40;99.90;;;;;;4953775;28;20488;-67
2021/04/05 02:06:54;;;;;;;16.87;15.30;;;5.40;99.90;;;;;;4953632;29;20555;-67
2021/04/05 02:09:20;;;;;;;17.57;16.17;;;5.40;99.90;;;;;;4953521;29;20500;-68
2021/04/05 02:11:47;;;;;;;18.80;17.40;;;5.40;99.90;;;;;;4953511;29;20972;-68
2021/04/05 02:14:14;;;;;;;16.80;15.30;;;5.40;99.90;;;;;;4954005;29;20455;-68
2021/04/05 02:16:44;;;;;;;15.20;14.03;;;5.20;99.90;;;;;;4953326;29;20823;-68
2021/04/05 02:19:15;;;;;;;16.40;15.10;;;5.20;99.90;;;;;;4953547;29;20455;-68
2021/04/05 02:21:45;;;;;;;16.70;15.20;;;5.20;99.90;;;;;;4953420;29;20491;-67
2021/04/05 02:24:13;;;;;;;17.37;16.00;;;5.10;99.90;;;;;;4953466;29;20484;-68
2021/04/05 02:26:40;;;;;;;16.23;14.93;;;5.10;99.90;;;;;;4953178;28;20519;-67
2021/04/05 02:29:07;;;;;;;15.97;14.47;;;5.10;99.90;;;;;;4953152;29;20896;-68
2021/04/05 02:31:35;;;;;;;15.13;14.07;;;5.10;99.90;;;;;;4957540;28;20448;-67
2021/04/05 02:34:02;;;;;;;16.73;15.03;;;5.00;99.90;;;;;;4972735;28;20841;-68
2021/04/05 02:36:30;;;;;;;15.23;14.07;;;5.10;99.90;;;;;;4973296;28;20454;-68
2021/04/05 02:38:58;;;;;;;13.77;12.57;;;5.20;99.90;;;;;;4972680;28;20458;-68
2021/04/05 02:41:26;;;;;;;14.97;13.63;;;5.20;99.90;;;;;;4972554;28;20462;-68
2021/04/05 02:43:53;;;;;;;16.30;14.90;;;5.20;99.90;;;;;;4972230;28;20488;-68
2021/04/05 02:46:23;;;;;;;16.30;15.00;;;5.20;99.90;;;;;;4972068;28;20819;-68
2021/04/05 02:48:52;;;;;;;15.77;14.47;;;5.20;99.90;;;;;;4972309;28;20457;-68
2021/04/05 02:51:19;;;;;;;16.30;15.07;;;5.10;99.90;;;;;;4972383;28;20460;-68
2021/04/05 02:53:49;;;;;;;15.87;14.50;;;5.00;99.90;;;;;;4972065;28;20453;-70
2021/04/05 02:56:16;;;;;;;15.00;13.73;;;5.00;99.90;;;;;;4972395;28;20828;-68
2021/04/05 02:58:44;;;;;;;16.20;15.07;;;4.90;99.90;;;;;;4972428;28;20462;-68
2021/04/05 03:01:11;;;;;;;16.13;14.47;;;4.90;99.90;;;;;;4972199;28;20456;-67
2021/04/05 03:03:38;;;;;;;15.00;13.90;;;5.00;99.90;;;;;;4971759;28;20498;-68
2021/04/05 03:06:07;;;;;;;14.67;13.57;;;4.90;99.90;;;;;;4971801;28;20974;-67
2021/04/05 03:08:33;;;;;;;13.57;12.47;;;4.80;99.90;;;;;;4971957;28;20880;-67
2021/04/05 03:11:00;;;;;;;16.53;14.97;;;4.80;99.90;;;;;;4972208;28;20484;-67
2021/04/05 03:13:30;;;;;;;15.50;14.23;;;4.70;99.90;;;;;;4972127;28;20451;-67
2021/04/05 03:15:57;;;;;;;15.17;13.97;;;4.70;99.90;;;;;;4971973;28;20538;-67
2021/04/05 03:18:25;;;;;;;15.80;14.33;;;4.60;99.90;;;;;;4971825;28;20554;-67
2021/04/05 03:20:52;;;;;;;16.10;14.80;;;4.60;99.90;;;;;;4971856;28;20936;-67
2021/04/05 03:23:22;;;;;;;17.43;15.93;;;4.50;99.90;;;;;;4971599;28;20480;-67
2021/04/05 03:25:49;;;;;;;15.57;14.27;;;4.50;99.90;;;;;;4971928;28;20488;-67
2021/04/05 03:28:16;;;;;;;16.73;15.37;;;4.40;99.90;;;;;;4972085;28;20482;-68
2021/04/05 03:30:48;;;;;;;16.70;15.30;;;4.40;99.90;;;;;;4972143;28;20471;-67
2021/04/05 03:33:18;;;;;;;15.73;14.47;;;4.40;99.90;;;;;;4953885;28;20789;-67
2021/04/05 03:35:48;;;;;;;16.23;15.10;;;4.40;99.90;;;;;;4952651;29;20949;-68
2021/04/05 03:38:15;;;;;;;15.13;14.20;;;4.30;99.90;;;;;;4952368;28;20468;-68
2021/04/05 03:40:42;;;;;;;17.00;15.50;;;4.30;99.90;;;;;;4955691;29;20828;-67
2021/04/05 03:43:18;;;;;;;16.70;15.20;;;4.20;99.90;;;;;;4956152;29;20455;-68
2021/04/05 03:45:52;;;;;;;15.23;14.13;;;4.20;99.90;;;;;;4956082;29;20452;-67
2021/04/05 03:48:21;;;;;;;14.33;13.53;;;4.20;99.90;;;;;;4956429;29;20811;-67
2021/04/05 03:50:55;;;;;;;15.73;14.30;;;4.20;99.90;;;;;;4956157;28;20459;-67
2021/04/05 03:53:29;;;;;;;16.20;15.10;;;4.30;99.90;;;;;;4956075;29;20458;-69
2021/04/05 03:56:01;;;;;;;15.67;14.57;;;4.30;99.90;;;;;;4955981;29;20452;-68
2021/04/05 03:58:31;;;;;;;16.10;14.80;;;4.30;99.90;;;;;;4956407;29;20459;-67
2021/04/05 04:01:03;;;;;;;16.13;14.57;;;4.40;99.90;;;;;;4956111;29;20503;-67
2021/04/05 04:03:35;;;;;;;14.57;13.57;;;4.40;99.90;;;;;;4956375;29;20990;-68
2021/04/05 04:06:04;;;;;;;14.43;13.33;;;4.50;99.90;;;;;;4955914;29;20452;-68
2021/04/05 04:08:38;;;;;;;15.53;14.10;;;4.60;99.90;;;;;;4955946;28;20567;-68
2021/04/05 04:11:08;;;;;;;15.20;14.03;;;4.60;99.90;;;;;;4955761;29;20464;-68
2021/04/05 04:13:38;;;;;;;16.57;15.27;;;4.70;99.90;;;;;;4955507;28;20493;-68
2021/04/05 04:16:06;;;;;;;15.47;14.33;;;4.60;99.90;;;;;;4955540;29;20483;-68
2021/04/05 04:18:33;;;;;;;15.37;14.07;;;4.60;99.90;;;;;;4955482;29;20559;-68
2021/04/05 04:20:59;;;;;;;18.03;15.07;;;4.60;99.90;;;;;;4955683;28;20465;-67
2021/04/05 04:23:26;;;;;;;16.00;14.60;;;4.60;99.90;;;;;;4954978;28;20496;-68
2021/04/05 04:25:53;;;;;;;15.07;14.13;;;4.50;99.90;;;;;;4955321;29;20559;-68
2021/04/05 04:28:20;;;;;;;14.90;13.70;;;4.40;99.90;;;;;;4955659;29;20457;-68
2021/04/05 04:30:54;;;;;;;16.63;15.13;;;4.30;99.90;;;;;;4955708;28;20456;-68
2021/04/05 04:33:21;;;;;;;16.50;14.80;;;4.30;99.90;;;;;;4973492;28;20479;-69
2021/04/05 04:35:47;;;;;;;16.90;15.27;;;4.20;99.90;;;;;;4974499;28;20460;-69
2021/04/05 04:38:13;;;;;;;15.50;14.37;;;4.20;99.90;;;;;;4974698;28;20503;-70
2021/04/05 04:40:40;;;;;;;16.20;14.90;;;4.20;99.90;;;;;;4974497;28;20462;-71
2021/04/05 04:43:07;;;;;;;15.60;14.30;;;4.10;99.90;;;;;;4974547;28;20467;-71
2021/04/05 04:45:35;;;;;;;14.97;13.70;;;4.10;99.90;;;;;;4974328;28;20455;-71
2021/04/05 04:48:01;;;;;;;15.17;13.97;;;4.20;99.90;;;;;;4974243;28;20449;-70
2021/04/05 04:50:28;;;;;;;15.20;14.07;;;4.20;99.90;;;;;;4974271;28;20457;-72
2021/04/05 04:52:55;;;;;;;16.60;15.37;;;4.30;99.90;;;;;;4974247;28;20455;-70
2021/04/05 04:55:24;;;;;;;16.50;15.03;;;4.30;99.90;;;;;;4974313;28;20505;-70
2021/04/05 04:57:54;;;;;;;17.00;15.50;;;4.30;99.90;;;;;;4973848;28;20463;-70
2021/04/05 05:00:23;;;;;;;17.73;16.33;;;4.30;99.90;;;;;;4973579;28;20492;-70
2021/04/05 05:02:50;;;;;;;16.37;14.97;;;4.30;99.90;;;;;;4974124;28;20853;-70
2021/04/05 05:05:18;;;;;;;14.70;13.77;;;4.40;99.90;;;;;;4973860;28;20507;-71
2021/04/05 05:07:45;;;;;;;15.67;14.57;;;4.40;99.90;;;;;;4973797;28;20828;-70
2021/04/05 05:10:13;;;;;;;16.47;14.90;;;4.50;99.90;;;;;;4967210;28;20484;-70
2021/04/05 05:12:41;;;;;;;16.40;15.30;;;4.50;99.90;;;;;;4965814;28;20441;-71
2021/04/05 05:15:09;;;;;;;17.27;15.60;;;4.60;99.90;;;;;;4973564;28;20448;-71
2021/04/05 05:17:40;;;;;;;15.53;14.33;;;4.70;99.90;;;;;;4973653;28;20488;-72
2021/04/05 05:20:08;;;;;;;17.53;16.13;;;4.70;99.90;;;;;;4973799;28;20457;-71
2021/04/05 05:22:37;;;;;;;16.60;15.40;;;4.70;99.90;;;;;;4973813;28;20459;-72
2021/04/05 05:25:05;;;;;;;15.80;14.40;;;4.70;99.90;;;;;;4973666;28;20495;-73
2021/04/05 05:27:34;;;;;;;16.90;15.77;;;4.70;99.90;;;;;;4973673;28;20504;-72
2021/04/05 05:30:04;;;;;;;17.90;16.27;;;4.70;99.90;;;;;;4975974;28;20475;-72
2021/04/05 05:32:30;;;;;;;15.53;14.23;;;4.80;99.90;;;;;;4966135;28;20453;-71
2021/04/05 05:34:56;;;;;;;16.00;14.83;;;4.80;99.90;;;;;;4954364;29;20446;-71
2021/04/05 05:37:23;;;;;;;16.20;14.87;;;4.70;99.90;;;;;;4954123;29;20461;-71
2021/04/05 05:39:49;;;;;;;14.97;13.77;;;4.70;99.90;;;;;;4954159;28;20453;-72
2021/04/05 05:42:26;;;;;;;15.73;14.40;;;4.80;99.90;;;;;;4953953;29;20463;-72
2021/04/05 05:45:02;;;;;;;15.53;14.37;;;4.80;99.90;;;;;;4954022;29;20998;-71
2021/04/05 05:47:34;;;;;;;14.50;13.40;;;4.90;99.90;;;;;;4954229;29;20448;-72
2021/04/05 05:50:12;;;;;;;12.90;12.10;;;5.00;99.90;;;;;;4953815;29;20959;-72
2021/04/05 05:52:50;;;;;;;16.43;15.30;;;5.10;99.90;;;;;;4953688;29;21029;-71
2021/04/05 05:55:38;;;;;;;15.03;13.80;;;5.20;99.90;;;;;;4954149;29;20445;-72
2021/04/05 05:58:12;;;;;;;15.80;14.70;;;5.30;99.90;;;;;;4953577;28;20455;-71
2021/04/05 06:00:44;;;;;;;14.53;13.63;;;5.50;99.90;;;;;;4961376;28;20451;-72
2021/04/05 06:03:34;;;;;;;14.70;13.80;;;5.70;99.90;;;;;;4960630;28;20514;-72
2021/04/05 06:06:13;;;;;;;14.63;13.77;;;5.90;99.90;;;;;;4961591;28;20892;-73
2021/04/05 06:08:51;;;;;;;15.17;14.13;;;6.00;99.90;;;;;;4961448;28;20448;-73
2021/04/05 06:11:26;;;;;;;15.77;14.77;;;6.20;99.90;;;;;;4961254;28;20457;-71
2021/04/05 06:14:00;;;;;;;15.90;14.77;;;6.20;99.90;;;;;;4960839;28;20439;-72
2021/04/05 06:16:45;;;;;;;15.90;14.70;;;6.30;99.90;;;;;;4961469;28;20567;-72
2021/04/05 06:19:33;;;;;;;14.90;13.80;;;6.20;99.90;;;;;;4962862;28;20446;-71
2021/04/05 06:22:11;;;;;;;14.90;13.90;;;6.20;99.90;;;;;;4961469;28;20452;-72
2021/04/05 06:24:48;;;;;;;14.40;13.30;;;6.20;99.90;;;;;;4960941;28;20985;-72
2021/04/05 06:27:20;;;;;;;15.33;14.00;;;6.20;99.90;;;;;;4960483;28;20562;-71
2021/04/05 06:30:02;;;;;;;15.43;14.13;;;6.30;99.90;;;;;;4961180;28;20947;-71
2021/04/05 06:32:38;;;;;;;15.10;13.73;;;6.40;99.90;;;;;;4961198;28;20458;-71
2021/04/05 06:35:18;;;;;;;14.50;13.40;;;6.70;99.90;;;;;;4961474;28;20447;-71
2021/04/05 06:37:46;;;;;;;15.27;13.97;;;6.90;99.90;;;;;;4961483;28;20974;-72
2021/04/05 06:40:18;;;;;;;14.80;13.60;;;7.00;99.90;;;;;;4960546;28;20456;-72
2021/04/05 06:43:00;;;;;;;16.30;14.80;;;7.10;99.90;;;;;;4961650;28;20878;-73
2021/04/05 06:45:42;;;;;;;12.80;12.10;;;7.10;99.90;;;;;;4961360;28;20530;-72
2021/04/05 06:48:28;;;;;;;14.00;12.90;;;7.20;99.90;;;;;;4960768;28;20503;-71
2021/04/05 06:51:02;;;;;;;12.87;12.07;;;7.30;99.90;;;;;;4962394;28;20466;-73
2021/04/05 06:54:02;;;;;;;12.47;11.57;;;7.40;99.90;;;;;;4961879;28;20453;-73
2021/04/05 06:56:38;;;;;;;15.17;13.97;;;7.40;99.90;;;;;;4962024;28;20943;-73
2021/04/05 06:59:21;;;;;;;13.43;12.53;;;7.60;99.90;;;;;;4961441;28;20836;-72
2021/04/05 07:02:14;;;;;;;13.43;12.43;;;7.70;99.90;;;;;;4961743;28;20441;-72
2021/04/05 07:04:52;;;;;;;14.30;13.23;;;7.90;99.90;;;;;;4960742;28;20485;-72
2021/04/05 07:07:34;;;;;;;12.27;11.30;;;8.20;99.90;;;;;;4960162;28;20453;-71
2021/04/05 07:10:06;;;;;;;13.80;12.60;;;8.30;99.20;;;;;;4960615;28;20464;-73
2021/04/05 07:12:57;;;;;;;17.93;12.50;;;8.50;98.80;;;;;;4960161;28;20796;-72
2021/04/05 07:15:39;;;;;;;13.20;12.20;;;8.80;97.90;;;;;;4963646;28;20445;-73
2021/04/05 07:18:30;;;;;;;12.60;11.93;;;8.90;97.60;;;;;;4964958;28;20486;-72
2021/04/05 07:21:04;;;;;;;12.60;11.73;;;8.90;97.10;;;;;;4966219;28;20486;-73
2021/04/05 07:23:44;;;;;;;12.23;11.53;;;9.20;96.60;;;;;;4965749;28;20839;-72
2021/04/05 07:26:17;;;;;;;12.57;11.73;;;9.40;96.10;;;;;;4965614;28;20455;-72
2021/04/05 07:28:56;;;;;;;13.50;12.43;;;9.50;95.70;;;;;;4965091;28;20802;-72
2021/04/05 07:31:34;;;;;;;15.53;14.07;;;9.80;95.00;;;;;;4964581;28;20474;-72
2021/04/05 07:34:12;;;;;;;13.27;12.07;;;10.10;93.90;;;;;;4964249;28;20452;-73
2021/04/05 07:36:42;;;;;;;13.17;11.83;;;10.50;93.10;;;;;;4963881;28;20448;-71
2021/04/05 07:39:17;;;;;;;13.87;12.87;;;10.80;92.70;;;;;;4964453;28;20934;-70
2021/04/05 07:41:49;;;;;;;14.00;13.10;;;11.30;91.60;;;;;;4964446;28;20506;-73
2021/04/05 07:44:52;;;;;;;14.77;13.60;;;11.60;90.60;;;;;;4963441;28;20477;-72
2021/04/05 07:47:29;;;;;;;12.50;11.70;;;12.20;89.20;;;;;;4969581;28;20451;-71
2021/04/05 07:50:03;;;;;;;12.13;11.33;;;12.60;86.10;;;;;;4975659;28;21007;-70
2021/04/05 07:52:36;;;;;;;13.17;12.40;;;13.10;84.10;;;;;;4975268;28;20451;-71
2021/04/05 07:55:04;;;;;;;14.43;13.47;;;13.60;82.70;;;;;;4975696;28;20570;-71
2021/04/05 07:57:40;;;;;;;15.07;12.00;;;14.10;79.60;;;;;;4975492;28;20492;-71
2021/04/05 08:00:13;;;;;;;13.00;12.03;;;14.60;77.10;;;;;;4975541;28;20435;-70
2021/04/05 08:02:48;;;;;;;12.93;12.00;;;14.40;75.90;;;;;;4975130;28;20439;-72
2021/04/05 08:05:40;;;;;;;14.93;13.53;;;15.30;75.10;;;;;;4975365;28;20894;-72
2021/04/05 08:20:32;;;;;;;14.63;13.43;;;16.70;69.70;;;;;;5148975;27;20560;-72
2021/04/05 08:23:08;;;;;;;14.33;13.23;;;19.50;56.80;;;;;;5149337;27;21223;-72
2021/04/05 08:25:45;;;;;;;14.70;13.60;;;18.90;56.10;;;;;;5149027;27;20440;-72
2021/04/05 08:28:20;;;;;;;13.87;12.87;;;18.70;57.10;;;;;;5150797;27;20514;-71
2021/04/05 08:30:55;;;;;;;15.00;14.00;;;18.80;56.60;;;;;;5155013;27;20447;-72
2021/04/05 08:33:35;;;;;;;14.37;13.57;;;19.40;56.00;;;;;;5151873;27;20802;-72
2021/04/05 08:36:11;;;;;;;14.03;12.80;;;20.40;53.80;;;;;;5149149;27;20462;-73
2021/04/05 08:38:50;;;;;;;14.20;13.30;;;21.20;52.30;;;;;;5148885;27;20856;-71
2021/04/05 08:41:27;;;;;;;14.87;13.73;;;21.10;50.60;;;;;;5148987;27;20443;-71
2021/04/05 08:44:01;;;;;;;14.43;13.37;;;21.00;51.10;;;;;;5148931;27;20477;-71
2021/04/05 08:46:31;;;;;;;15.17;14.17;;;21.00;51.00;;;;;;5148583;27;20456;-71
2021/04/05 08:49:00;;;;;;;14.47;13.37;;;21.00;50.00;;;;;;5148821;27;20531;-70
2021/04/05 08:51:31;;;;;;;13.97;12.93;;;20.70;50.20;;;;;;5148582;27;20448;-70
2021/04/05 08:54:00;;;;;;;12.97;12.07;;;20.10;50.70;;;;;;5148904;27;20455;-70
2021/04/05 08:56:30;;;;;;;13.87;12.73;;;19.80;51.70;;;;;;5148367;27;20500;-69
2021/04/05 08:59:03;;;;;;;12.33;11.50;;;19.70;51.10;;;;;;5148793;27;20440;-71
2021/04/05 09:01:36;;;;;;;12.90;11.97;;;18.70;49.70;;;;;;5148413;27;20477;-70
2021/04/05 09:04:02;;;;;;;11.87;11.03;;;18.20;48.60;;;;;;5148408;27;20482;-70
2021/04/05 09:06:36;;;;;;;13.10;12.20;;;17.70;47.60;;;;;;5148083;27;20454;-70
2021/04/05 09:09:03;;;;;;;11.70;10.90;;;17.00;48.10;;;;;;5148317;27;20494;-70
2021/04/05 09:11:36;;;;;;;12.80;12.00;;;16.80;49.60;;;;;;5148240;27;20455;-70
2021/04/05 09:14:03;;;;;;;12.50;11.70;;;16.40;49.20;;;;;;5148288;27;20451;-70
2021/04/05 09:16:59;;;;;;;13.10;12.07;;;16.20;50.50;;;;;;5147919;27;21006;-70
2021/04/05 09:19:36;;;;;;;12.40;11.60;;;16.10;50.40;;;;;;5145261;27;20480;-71
2021/04/05 09:22:26;;;;;;;12.47;11.77;;;16.00;51.40;;;;;;5134441;27;20970;-72
2021/04/05 09:25:09;;;;;;;13.33;12.37;;;16.20;51.80;;;;;;5134455;27;20455;-69
2021/04/05 09:28:12;;;;;;;13.27;12.30;;;16.10;52.40;;;;;;5133983;27;21012;-69
2021/04/05 09:31:22;;;;;;;13.17;12.27;;;15.90;52.10;;;;;;5133851;27;20439;-70
2021/04/05 09:34:14;;;;;;;13.00;12.10;;;15.40;52.00;;;;;;5113591;28;20941;-71
2021/04/05 09:36:53;;;;;;;11.47;10.70;;;15.10;53.20;;;;;;5113307;28;20457;-71
2021/04/05 09:40:06;;;;;;;11.70;10.80;;;15.00;53.80;;;;;;5113642;28;20788;-70
2021/04/05 09:43:11;;;;;;;13.13;12.13;;;15.40;54.00;;;;;;5030066;28;20456;-71
2021/04/05 09:45:44;;;;;;;12.53;11.83;;;16.00;53.50;;;;;;4993291;28;20497;-71
2021/04/05 09:48:42;;;;;;;13.43;12.40;;;16.30;52.00;;;;;;5109500;27;20460;-71
2021/04/05 09:51:47;;;;;;;12.90;12.00;;;16.00;52.00;;;;;;5113007;28;20453;-71
2021/04/05 09:54:23;;;;;;;12.43;11.20;;;15.80;51.90;;;;;;5113066;28;20446;-70
2021/04/05 09:56:56;;;;;;;12.10;11.20;;;15.90;51.70;;;;;;5113084;28;20453;-70
2021/04/05 09:59:35;;;;;;;13.47;12.37;;;16.10;51.60;;;;;;5113033;28;20998;-70
2021/04/05 10:02:02;;;;;;;12.53;11.53;;;15.50;50.80;;;;;;5113023;28;20948;-69
2021/04/05 10:04:30;;;;;;;12.53;11.50;;;15.60;51.00;;;;;;5112840;28;20564;-70
2021/04/05 10:06:58;;;;;;;12.43;11.53;;;15.90;50.10;;;;;;5112992;28;20441;-71
2021/04/05 10:09:29;;;;;;;11.50;10.87;;;15.80;50.00;;;;;;5112564;28;20514;-69
2021/04/05 10:12:00;;;;;;;12.40;11.70;;;15.50;49.60;;;;;;5112768;28;20510;-70
2021/04/05 10:14:27;;;;;;;12.73;11.83;;;15.80;49.30;;;;;;5112490;28;20450;-70
2021/04/05 10:16:55;;;;;;;12.60;11.33;;;15.70;48.20;;;;;;5112561;28;20467;-71
2021/04/05 10:19:28;;;;;;;12.10;11.10;;;15.50;48.60;;;;;;5112649;28;20607;-71
2021/04/05 10:22:01;;;;;;;11.37;10.60;;;15.80;49.20;;;;;;5112682;28;20452;-70
2021/04/05 10:24:29;;;;;;;12.40;11.17;;;16.30;49.30;;;;;;5112221;28;20448;-70
2021/04/05 10:27:06;;;;;;;12.33;11.57;;;16.10;48.60;;;;;;5112336;28;20984;-71
2021/04/05 10:29:35;;;;;;;11.80;10.90;;;15.90;48.70;;;;;;5110831;28;20485;-71
2021/04/05 10:32:04;;;;;;;12.73;11.83;;;15.80;48.70;;;;;;5120506;27;20440;-71
2021/04/05 10:34:34;;;;;;;12.30;11.60;;;16.00;48.50;;;;;;5133733;27;20444;-71
2021/04/05 10:37:07;;;;;;;11.23;10.53;;;15.90;47.80;;;;;;5133727;27;20449;-71
2021/04/05 10:39:34;;;;;;;12.07;11.40;;;16.10;48.40;;;;;;5133683;27;20440;-71
2021/04/05 10:42:06;;;;;;;14.20;13.10;;;16.10;47.50;;;;;;5133580;27;20451;-71
2021/04/05 10:44:37;;;;;;;15.07;13.80;;;16.40;47.30;;;;;;5133604;27;20500;-71
2021/04/05 10:47:09;;;;;;;11.73;10.93;;;16.60;47.40;;;;;;5133525;27;20470;-71
2021/04/05 10:49:35;;;;;;;13.20;12.10;;;17.00;46.60;;;;;;5133413;27;20832;-71
2021/04/05 10:52:10;;;;;;;11.43;10.73;;;16.90;45.40;;;;;;5133276;27;20443;-71
2021/04/05 10:54:39;;;;;;;12.50;11.27;;;16.60;45.30;;;;;;5133374;27;20466;-71
2021/04/05 10:57:10;;;;;;;11.27;10.53;;;16.80;45.40;;;;;;5133236;27;20864;-71
2021/04/05 10:59:46;;;;;;;12.57;11.67;;;16.90;44.30;;;;;;5133274;27;20745;-72
2021/04/05 11:02:19;;;;;;;10.40;9.50;;;16.90;44.70;;;;;;5133233;27;20447;-71
2021/04/05 11:04:51;;;;;;;11.13;10.53;;;17.00;44.70;;;;;;5133339;27;20511;-71
2021/04/05 11:07:20;;;;;;;12.53;11.60;;;17.40;44.30;;;;;;5133101;27;20448;-71
2021/04/05 11:09:47;;;;;;;10.80;10.07;;;17.40;43.40;;;;;;5132740;27;21053;-70
2021/04/05 11:12:18;;;;;;;11.20;10.50;;;17.40;43.50;;;;;;5132959;27;20526;-71
2021/04/05 11:14:46;;;;;;;11.70;11.00;;;17.00;43.60;;;;;;5133058;27;20452;-71
2021/04/05 11:17:13;;;;;;;12.00;10.90;;;17.10;43.90;;;;;;5132676;27;20521;-71
2021/04/05 11:19:49;;;;;;;11.23;10.70;;;16.80;44.10;;;;;;5132450;27;20991;-71
2021/04/05 11:22:17;;;;;;;10.90;9.90;;;16.80;44.10;;;;;;5132755;27;20444;-71
2021/04/05 11:24:45;;;;;;;11.60;10.93;;;16.70;43.80;;;;;;5132652;27;20967;-70
2021/04/05 11:27:14;;;;;;;12.63;11.40;;;16.60;43.50;;;;;;5132580;27;20456;-70
2021/04/05 11:29:44;;;;;;;11.40;10.60;;;16.40;43.90;;;;;;5132643;27;20484;-70
2021/04/05 11:32:14;;;;;;;11.50;10.80;;;16.50;43.80;;;;;;5135636;27;20453;-71
2021/04/05 11:34:43;;;;;;;13.13;12.17;;;16.60;44.40;;;;;;5137770;27;20441;-70
2021/04/05 11:37:13;;;;;;;11.70;10.97;;;16.50;44.70;;;;;;5133155;27;20802;-70
2021/04/05 11:39:44;;;;;;;12.57;11.40;;;16.60;46.10;;;;;;5132402;27;20865;-72
2021/04/05 11:42:12;;;;;;;12.07;11.30;;;16.40;49.00;;;;;;5130682;27;20444;-72
2021/04/05 11:44:53;;;;;;;14.63;13.40;;;16.60;49.60;;;;;;5131810;27;20448;-72
2021/04/05 11:47:23;;;;;;;14.90;13.40;;;16.20;50.50;;;;;;5131968;27;20884;-72
2021/04/05 11:49:49;;;;;;;14.20;13.10;;;16.10;51.40;;;;;;5131753;27;20480;-72
2021/04/05 11:52:20;;;;;;;13.17;11.97;;;16.10;52.00;;;;;;5131756;27;20467;-72
2021/04/05 11:54:51;;;;;;;14.03;13.00;;;16.20;52.20;;;;;;5132009;27;20815;-71
2021/04/05 11:57:25;;;;;;;14.67;13.30;;;16.20;52.10;;;;;;5131930;27;20452;-72
2021/04/05 11:59:58;;;;;;;14.57;13.37;;;16.00;52.50;;;;;;5132121;27;20445;-72
2021/04/05 12:02:28;;;;;;;15.20;14.03;;;15.90;53.50;;;;;;5131962;27;20448;-72
2021/04/05 12:05:01;;;;;;;14.53;13.20;;;15.80;53.90;;;;;;5132169;27;20451;-72
2021/04/05 12:07:29;;;;;;;20.10;13.57;;;15.50;54.70;;;;;;5132130;27;20448;-72
2021/04/05 12:09:59;;;;;;;14.57;13.53;;;15.30;55.40;;;;;;5132007;27;20484;-72
2021/04/05 12:12:32;;;;;;;14.37;13.33;;;15.40;55.80;;;;;;5132115;27;20449;-73
2021/04/05 12:15:01;;;;;;;15.73;14.50;;;15.30;56.20;;;;;;5132095;27;20522;-72
2021/04/05 12:17:29;;;;;;;15.23;13.73;;;15.30;56.30;;;;;;5131881;27;20480;-73
2021/04/05 12:19:57;;;;;;;15.30;14.10;;;15.00;57.10;;;;;;5131349;27;20476;-72
2021/04/05 12:22:28;;;;;;;17.27;14.00;;;14.90;57.70;;;;;;5131109;27;20448;-73
2021/04/05 12:24:55;;;;;;;15.30;14.10;;;14.60;58.00;;;;;;5128133;27;20493;-71
2021/04/05 12:27:31;;;;;;;15.73;14.20;;;14.50;58.70;;;;;;5131376;27;20444;-72
2021/04/05 12:30:00;;;;;;;17.50;16.17;;;14.20;59.80;;;;;;5131623;27;20832;-71
2021/04/05 12:32:27;;;;;;;15.97;14.57;;;14.20;61.90;;;;;;5131285;27;21000;-70
2021/04/05 12:34:56;;;;;;;17.70;16.30;;;13.80;65.50;;;;;;5131293;27;20448;-72
2021/04/05 12:37:25;;;;;;;18.47;16.47;;;13.60;68.10;;;;;;5131220;27;20452;-70
2021/04/05 12:39:53;;;;;;;17.20;15.70;;;13.50;69.90;;;;;;5131267;27;20444;-70
2021/04/05 12:42:21;;;;;;;16.47;14.97;;;13.60;70.30;;;;;;5131278;27;20820;-71
2021/04/05 12:45:00;;;;;;;16.43;15.10;;;13.70;70.00;;;;;;5131369;27;20440;-72
2021/04/05 12:47:32;;;;;;;18.60;16.17;;;13.80;69.60;;;;;;5131561;27;20808;-72
2021/04/05 12:50:02;;;;;;;20.20;16.80;;;13.80;70.20;;;;;;5131378;27;20487;-72
2021/04/05 12:52:32;;;;;;;20.93;16.10;;;13.70;70.90;;;;;;5131465;27;20448;-72
2021/04/05 12:55:03;;;;;;;17.83;15.90;;;13.60;70.80;;;;;;5132495;27;20484;-72
2021/04/05 12:57:33;;;;;;;18.53;16.90;;;13.30;72.30;;;;;;5135361;27;20459;-72
2021/04/05 13:00:01;;;;;;;21.43;19.33;;;13.30;74.10;;;;;;5135380;27;20668;-72
2021/04/05 13:02:30;;;;;;;20.03;18.00;;;13.10;75.10;;;;;;5135309;27;20455;-72
2021/04/05 13:04:59;;;;;;;20.77;18.00;;;13.10;76.10;;;;;;5135305;27;20471;-72
2021/04/05 13:07:28;;;;;;;21.17;19.37;;;13.10;76.30;;;;;;5135047;27;20451;-73
2021/04/05 13:09:58;;;;;;;22.80;17.87;;;13.20;77.10;;;;;;5134837;27;20587;-72